createdAt,value
2022-12-17T00:01:21.750Z,73.97
2022-12-17T00:04:07.047Z,73.90
2022-12-17T00:06:54.775Z,77.53
2022-12-17T00:09:43.601Z,73.70
2022-12-17T00:12:32.432Z,73.10
2022-12-17T00:15:17.722Z,79.77
2022-12-17T00:18:03.054Z,79.37
2022-12-17T00:20:49.155Z,81.17
2022-12-17T00:23:37.730Z,81.10
2022-12-17T00:26:23.718Z,72.27
2022-12-17T00:29:11.819Z,71.53
2022-12-17T00:31:57.563Z,68.27
2022-12-17T00:34:42.838Z,73.87
2022-12-17T00:37:31.173Z,76.63
2022-12-17T00:40:16.482Z,73.07
2022-12-17T00:43:01.631Z,73.68
2022-12-17T00:45:48.733Z,67.27
2022-12-17T00:48:37.109Z,66.00
2022-12-17T00:51:22.765Z,73.93
2022-12-17T00:54:08.101Z,66.77
2022-12-17T00:56:53.339Z,68.53
2022-12-17T00:59:41.900Z,73.13
2022-12-17T01:02:27.293Z,71.40
2022-12-17T01:05:13.039Z,66.50
2022-12-17T01:08:00.977Z,65.40
2022-12-17T01:10:46.486Z,65.20
2022-12-17T01:13:36.106Z,58.87
2022-12-17T01:16:31.382Z,68.63
2022-12-17T01:19:17.837Z,64.77
2022-12-17T01:22:06.204Z,67.37
2022-12-17T01:24:54.124Z,64.43
2022-12-17T01:27:44.150Z,57.93
2022-12-17T01:32:57.873Z,83.10
2022-12-17T01:35:43.697Z,64.23
2022-12-17T01:38:35.395Z,66.90
2022-12-17T01:41:22.052Z,63.93
2022-12-17T01:44:07.288Z,59.17
2022-12-17T01:47:00.029Z,62.20
2022-12-17T01:49:46.881Z,63.73
2022-12-17T01:52:35.030Z,68.67
2022-12-17T01:55:23.229Z,63.07
2022-12-17T01:58:09.226Z,65.83
2022-12-17T02:00:54.847Z,65.90
2022-12-17T02:03:42.495Z,61.27
2022-12-17T02:06:34.512Z,62.70
2022-12-17T02:09:26.696Z,67.63
2022-12-17T02:12:26.927Z,66.10
2022-12-17T02:15:37.125Z,56.77
2022-12-17T02:18:31.600Z,58.87
2022-12-17T02:21:19.490Z,49.23
2022-12-17T02:24:26.744Z,60.33
2022-12-17T02:27:18.143Z,58.53
2022-12-17T02:30:11.665Z,55.87
2022-12-17T02:33:00.881Z,62.90
2022-12-17T02:36:03.848Z,63.73
2022-12-17T02:38:50.915Z,61.53
2022-12-17T02:41:58.218Z,60.50
2022-12-17T02:44:45.146Z,59.60
2022-12-17T02:47:34.389Z,55.13
2022-12-17T02:50:20.186Z,57.03
2022-12-17T02:53:07.425Z,63.93
2022-12-17T02:55:54.512Z,55.28
2022-12-17T02:58:40.284Z,58.83
2022-12-17T03:01:26.436Z,57.20
2022-12-17T03:04:11.673Z,53.00
2022-12-17T03:06:57.034Z,61.37
2022-12-17T03:09:42.934Z,56.00
2022-12-17T03:12:28.272Z,68.63
2022-12-17T03:15:13.827Z,61.97
2022-12-17T03:18:03.824Z,56.73
2022-12-17T03:20:48.958Z,54.90
2022-12-17T03:23:39.687Z,56.63
2022-12-17T03:26:25.532Z,61.23
2022-12-17T03:29:10.563Z,65.93
2022-12-17T03:31:56.525Z,57.70
2022-12-17T03:34:41.675Z,58.33
2022-12-17T03:37:27.346Z,62.60
2022-12-17T03:40:13.194Z,58.13
2022-12-17T03:43:01.105Z,54.97
2022-12-17T03:45:57.016Z,59.93
2022-12-17T03:48:44.989Z,63.50
2022-12-17T03:51:52.245Z,50.70
2022-12-17T03:54:37.888Z,55.23
2022-12-17T03:57:25.950Z,71.57
2022-12-17T04:00:11.294Z,56.03
2022-12-17T04:02:56.719Z,58.20
2022-12-17T04:05:42.067Z,55.60
2022-12-17T04:08:27.521Z,59.93
2022-12-17T04:11:12.941Z,60.67
2022-12-17T04:14:00.837Z,58.97
2022-12-17T04:16:48.824Z,63.90
2022-12-17T04:19:36.707Z,58.40
2022-12-17T04:22:25.089Z,60.43
2022-12-17T04:25:10.215Z,55.90
2022-12-17T04:27:57.912Z,57.63
2022-12-17T04:30:46.039Z,58.45
2022-12-17T04:33:37.669Z,58.10
2022-12-17T04:36:23.587Z,62.40
2022-12-17T04:39:09.341Z,63.47
2022-12-17T04:41:57.303Z,50.90
2022-12-17T04:44:42.979Z,52.50
2022-12-17T04:47:28.278Z,72.87
2022-12-17T04:50:14.060Z,58.97
2022-12-17T04:53:01.897Z,57.38
2022-12-17T04:55:47.290Z,62.23
2022-12-17T04:58:35.535Z,55.50
2022-12-17T05:01:20.753Z,59.97
2022-12-17T05:04:06.353Z,63.42
2022-12-17T05:06:52.053Z,53.80
2022-12-17T05:09:39.767Z,56.40
2022-12-17T05:12:25.167Z,62.30
2022-12-17T05:15:10.733Z,63.25
2022-12-17T05:17:57.169Z,62.17
2022-12-17T05:20:47.901Z,59.47
2022-12-17T05:23:33.691Z,63.28
2022-12-17T05:26:26.368Z,60.65
2022-12-17T05:29:15.818Z,59.30
2022-12-17T05:32:01.466Z,64.07
2022-12-17T05:34:46.761Z,56.35
2022-12-17T05:37:32.230Z,59.92
2022-12-17T05:40:17.584Z,60.80
2022-12-17T05:43:18.818Z,58.95
2022-12-17T05:46:05.590Z,59.50
2022-12-17T05:48:52.068Z,58.40
2022-12-17T05:51:40.416Z,53.22
2022-12-17T05:54:26.510Z,52.25
2022-12-17T05:57:12.605Z,60.10
2022-12-17T05:59:57.887Z,66.75
2022-12-17T06:02:43.657Z,59.53
2022-12-17T06:05:30.531Z,57.45
2022-12-17T06:08:46.846Z,57.85
2022-12-17T06:11:32.472Z,69.32
2022-12-17T06:14:17.585Z,62.22
2022-12-17T06:17:03.195Z,74.00
2022-12-17T06:19:48.676Z,67.00
2022-12-17T06:22:34.159Z,54.35
2022-12-17T06:25:19.522Z,62.08
2022-12-17T06:28:04.743Z,61.20
2022-12-17T06:30:50.174Z,59.60
2022-12-17T06:33:36.301Z,72.95
2022-12-17T06:36:23.049Z,63.55
2022-12-17T06:39:09.826Z,64.78
2022-12-17T06:42:02.159Z,61.83
2022-12-17T06:44:49.758Z,55.08
2022-12-17T06:47:35.741Z,67.68
2022-12-17T06:50:21.404Z,58.17
2022-12-17T06:53:06.714Z,60.60
2022-12-17T06:55:52.430Z,60.25
2022-12-17T06:58:40.226Z,61.95
2022-12-17T07:01:25.718Z,57.55
2022-12-17T07:04:10.910Z,60.42
2022-12-17T07:06:56.430Z,64.25
2022-12-17T07:09:41.711Z,57.90
2022-12-17T07:12:29.512Z,54.10
2022-12-17T07:15:28.783Z,63.50
2022-12-17T07:18:21.273Z,63.25
2022-12-17T07:21:12.459Z,71.95
2022-12-17T07:24:00.994Z,55.40
2022-12-17T07:26:49.573Z,62.53
2022-12-17T07:29:51.676Z,55.85
2022-12-17T07:32:39.657Z,56.25
2022-12-17T07:35:26.118Z,59.40
2022-12-17T07:38:24.132Z,52.78
2022-12-17T07:41:09.973Z,55.83
2022-12-17T07:43:55.308Z,60.55
2022-12-17T07:46:43.049Z,53.65
2022-12-17T07:49:30.926Z,55.95
2022-12-17T07:52:16.440Z,54.97
2022-12-17T07:55:01.749Z,54.95
2022-12-17T07:57:49.533Z,54.33
2022-12-17T08:00:35.356Z,60.45
2022-12-17T08:03:21.216Z,52.50
2022-12-17T08:06:06.558Z,47.67
2022-12-17T08:08:54.544Z,54.90
2022-12-17T08:11:40.079Z,54.55
2022-12-17T08:14:25.626Z,52.53
2022-12-17T08:17:10.916Z,54.38
2022-12-17T08:19:56.255Z,42.80
2022-12-17T08:22:41.861Z,50.03
2022-12-17T08:25:29.403Z,44.10
2022-12-17T08:28:48.403Z,43.50
2022-12-17T08:31:23.144Z,47.10
2022-12-17T08:34:08.502Z,45.40
2022-12-17T08:36:53.695Z,47.47
2022-12-17T08:39:41.680Z,42.77
2022-12-17T08:42:27.024Z,49.60
2022-12-17T08:45:12.672Z,39.93
2022-12-17T08:48:03.605Z,44.30
2022-12-17T08:50:49.808Z,47.20
2022-12-17T08:53:37.855Z,40.97
2022-12-17T08:56:24.102Z,42.63
2022-12-17T08:59:09.962Z,50.30
2022-12-17T09:01:55.361Z,46.77
2022-12-17T09:04:40.927Z,45.63
2022-12-17T09:07:28.563Z,51.80
2022-12-17T09:10:13.904Z,45.00
2022-12-17T09:13:04.408Z,42.60
2022-12-17T09:15:50.590Z,49.57
2022-12-17T09:18:40.705Z,47.63
2022-12-17T09:21:27.096Z,45.30
2022-12-17T09:24:12.572Z,48.37
2022-12-17T09:26:58.355Z,41.53
2022-12-17T09:29:46.439Z,41.63
2022-12-17T09:32:31.866Z,39.87
2022-12-17T09:35:19.635Z,44.00
2022-12-17T09:38:24.815Z,36.80
2022-12-17T09:41:10.743Z,38.30
2022-12-17T09:44:13.859Z,43.03
2022-12-17T09:47:33.401Z,42.33
2022-12-17T09:50:25.679Z,44.60
2022-12-17T09:53:11.548Z,40.50
2022-12-17T09:56:09.094Z,46.77
2022-12-17T09:58:59.822Z,52.73
2022-12-17T10:01:53.855Z,47.43
2022-12-17T10:05:03.801Z,43.43
2022-12-17T10:07:57.505Z,45.10
2022-12-17T10:10:51.928Z,49.70
2022-12-17T10:13:41.445Z,45.70
2022-12-17T10:16:57.425Z,43.90
2022-12-17T10:19:55.879Z,46.53
2022-12-17T10:22:43.979Z,38.30
2022-12-17T10:25:41.486Z,47.23
2022-12-17T10:28:37.075Z,44.43
2022-12-17T10:31:49.606Z,42.47
2022-12-17T10:34:39.786Z,42.40
2022-12-17T10:37:37.187Z,40.90
2022-12-17T10:40:38.170Z,43.77
2022-12-17T10:43:41.811Z,43.67
2022-12-17T10:46:29.966Z,48.67
2022-12-17T10:49:42.211Z,39.20
2022-12-17T10:52:46.711Z,43.47
2022-12-17T10:55:46.989Z,45.47
2022-12-17T10:58:39.695Z,49.73
2022-12-17T11:01:30.167Z,48.97
2022-12-17T11:04:18.370Z,46.57
2022-12-17T11:07:07.752Z,45.00
2022-12-17T11:10:09.866Z,44.57
2022-12-17T11:13:02.556Z,46.60
2022-12-17T11:16:02.284Z,37.20
2022-12-17T11:19:29.332Z,56.73
2022-12-17T11:23:02.350Z,37.87
2022-12-17T11:26:31.597Z,39.37
2022-12-17T11:29:18.590Z,40.87
2022-12-17T11:32:45.196Z,36.60
2022-12-17T11:35:42.270Z,38.73
2022-12-17T11:38:48.658Z,46.13
2022-12-17T11:42:41.550Z,43.13
2022-12-17T11:45:47.627Z,36.27
2022-12-17T11:48:54.947Z,34.57
2022-12-17T11:52:15.771Z,40.33
2022-12-17T11:55:19.748Z,32.40
2022-12-17T11:58:23.291Z,36.83
2022-12-17T12:01:50.808Z,34.13
2022-12-17T12:05:05.956Z,45.40
2022-12-17T12:08:05.668Z,42.93
2022-12-17T12:11:20.047Z,42.17
2022-12-17T12:14:25.016Z,41.67
2022-12-17T12:17:35.986Z,31.23
2022-12-17T12:20:43.680Z,33.30
2022-12-17T12:23:48.748Z,35.53
2022-12-17T12:26:46.590Z,33.27
2022-12-17T12:29:59.365Z,35.60
2022-12-17T12:33:06.824Z,36.23
2022-12-17T12:35:58.959Z,31.60
2022-12-17T12:38:51.724Z,34.70
2022-12-17T12:41:52.727Z,44.73
2022-12-17T12:45:06.089Z,35.00
2022-12-17T12:48:28.418Z,36.43
2022-12-17T12:51:33.691Z,35.63
2022-12-17T12:54:49.342Z,29.83
2022-12-17T12:58:14.180Z,22.10
2022-12-17T13:01:12.926Z,23.97
2022-12-17T13:04:01.297Z,32.47
2022-12-17T13:06:46.890Z,22.30
2022-12-17T13:09:17.066Z,26.73
2022-12-17T13:12:02.885Z,20.90
2022-12-17T13:14:52.698Z,22.40
2022-12-17T13:17:27.873Z,32.17
2022-12-17T13:19:57.812Z,19.80
2022-12-17T13:22:24.912Z,27.13
2022-12-17T13:24:56.775Z,29.87
2022-12-17T13:27:35.581Z,33.37
2022-12-17T13:30:17.784Z,21.97
2022-12-17T13:33:13.735Z,27.47
2022-12-17T13:35:43.224Z,21.40
2022-12-17T13:38:39.385Z,21.80
2022-12-17T13:41:14.768Z,39.57
2022-12-17T13:43:51.125Z,30.93
2022-12-17T13:46:27.698Z,18.87
2022-12-17T13:49:00.268Z,22.90
2022-12-17T13:51:35.332Z,24.93
2022-12-17T13:54:05.967Z,24.53
2022-12-17T13:56:37.801Z,25.60
2022-12-17T13:59:09.144Z,24.70
2022-12-17T14:01:49.828Z,22.90
2022-12-17T14:04:28.822Z,27.73
2022-12-17T14:07:06.123Z,24.77
2022-12-17T14:09:40.350Z,25.87
2022-12-17T14:12:23.773Z,25.13
2022-12-17T14:15:01.520Z,26.23
2022-12-17T14:17:35.142Z,25.37
2022-12-17T14:20:10.670Z,25.63
2022-12-17T14:22:51.302Z,22.37
2022-12-17T14:25:23.535Z,30.63
2022-12-17T14:28:33.024Z,23.50
2022-12-17T14:31:28.600Z,26.40
2022-12-17T14:34:14.104Z,31.60
2022-12-17T14:36:43.953Z,38.67
2022-12-17T14:39:34.609Z,29.80
2022-12-17T14:42:26.425Z,29.10
2022-12-17T14:45:02.252Z,27.00
2022-12-17T14:47:38.513Z,33.33
2022-12-17T14:50:28.163Z,24.30
2022-12-17T14:52:58.907Z,28.73
2022-12-17T14:55:55.893Z,34.70
2022-12-17T14:58:25.392Z,32.27
2022-12-17T15:01:00.642Z,33.07
2022-12-17T15:03:34.148Z,28.60
2022-12-17T15:06:07.431Z,35.90
2022-12-17T15:08:43.333Z,27.83
2022-12-17T15:11:14.991Z,32.10
2022-12-17T15:13:44.751Z,31.13
2022-12-17T15:16:13.345Z,36.80
2022-12-17T15:18:40.803Z,35.93
2022-12-17T15:21:13.074Z,32.53
2022-12-17T15:23:43.384Z,30.07
2022-12-17T15:26:11.182Z,50.93
2022-12-17T15:28:38.376Z,33.63
2022-12-17T15:31:08.232Z,40.10
2022-12-17T15:33:35.125Z,38.60
2022-12-17T15:36:03.444Z,37.10
2022-12-17T15:38:30.394Z,33.50
2022-12-17T15:41:00.712Z,34.03
2022-12-17T15:43:27.514Z,38.20
2022-12-17T15:45:54.452Z,35.87
2022-12-17T15:48:23.336Z,35.20
2022-12-17T15:50:50.391Z,34.70
2022-12-17T15:53:17.347Z,28.70
2022-12-17T15:55:44.659Z,38.73
2022-12-17T15:58:14.095Z,33.43
2022-12-17T16:00:44.183Z,40.57
2022-12-17T16:03:14.067Z,41.87
2022-12-17T16:05:41.128Z,41.23
2022-12-17T16:08:07.959Z,26.60
2022-12-17T16:10:34.938Z,38.50
2022-12-17T16:13:03.897Z,36.77
2022-12-17T16:15:30.906Z,37.73
2022-12-17T16:17:57.850Z,40.73
2022-12-17T16:20:27.833Z,37.77
2022-12-17T16:22:56.968Z,39.37
2022-12-17T16:25:23.839Z,36.70
2022-12-17T16:27:50.809Z,32.97
2022-12-17T16:30:18.032Z,41.23
2022-12-17T16:32:44.931Z,47.37
2022-12-17T16:35:11.907Z,31.60
2022-12-17T16:37:38.746Z,40.37
2022-12-17T16:40:06.747Z,39.47
2022-12-17T16:42:36.222Z,40.40
2022-12-17T16:45:03.344Z,44.07
2022-12-17T16:47:30.237Z,47.40
2022-12-17T16:49:57.201Z,42.30
2022-12-17T16:52:24.241Z,47.10
2022-12-17T16:54:51.150Z,44.30
2022-12-17T16:57:18.220Z,43.67
2022-12-17T16:59:47.455Z,49.80
2022-12-17T17:02:18.585Z,40.20
2022-12-17T17:04:45.744Z,46.47
2022-12-17T17:07:12.715Z,36.70
2022-12-17T17:09:42.211Z,36.47
2022-12-17T17:12:11.925Z,33.10
2022-12-17T17:14:40.317Z,46.67
2022-12-17T17:17:07.304Z,38.07
2022-12-17T17:19:34.137Z,43.87
2022-12-17T17:22:00.964Z,36.70
2022-12-17T17:24:30.823Z,48.90
2022-12-17T17:27:00.304Z,39.50
2022-12-17T17:29:29.442Z,42.00
2022-12-17T17:32:16.554Z,50.03
2022-12-17T17:34:43.560Z,40.20
2022-12-17T17:37:13.518Z,40.67
2022-12-17T17:39:42.713Z,41.50
2022-12-17T17:42:09.985Z,44.30
2022-12-17T17:44:38.339Z,38.00
2022-12-17T17:47:05.514Z,36.33
2022-12-17T17:49:35.488Z,41.70
2022-12-17T17:52:11.346Z,47.87
2022-12-17T17:54:43.414Z,41.40
2022-12-17T17:57:10.624Z,36.30
2022-12-17T17:59:39.493Z,37.00
2022-12-17T18:02:11.121Z,41.17
2022-12-17T18:04:38.605Z,40.83
2022-12-17T18:09:55.574Z,44.80
2022-12-17T18:12:41.406Z,34.00
2022-12-17T18:15:14.809Z,44.53
2022-12-17T18:17:45.095Z,43.03
2022-12-17T18:20:13.192Z,33.70
2022-12-17T18:22:40.286Z,37.27
2022-12-17T18:25:07.807Z,38.23
2022-12-17T18:27:35.079Z,37.33
2022-12-17T18:30:02.352Z,40.17
2022-12-17T18:32:29.503Z,33.87
2022-12-17T18:34:56.742Z,35.70
2022-12-17T18:37:23.612Z,32.93
2022-12-17T18:39:53.596Z,43.80
2022-12-17T18:42:41.276Z,40.83
2022-12-17T18:45:12.251Z,37.63
2022-12-17T18:47:40.000Z,30.47
2022-12-17T18:50:07.831Z,35.13
2022-12-17T18:52:39.890Z,37.87
2022-12-17T18:55:10.420Z,40.00
2022-12-17T18:57:41.077Z,55.93
2022-12-17T19:00:09.814Z,33.90
2022-12-17T19:02:37.816Z,40.43
2022-12-17T19:05:07.711Z,44.20
2022-12-17T19:07:35.597Z,37.47
2022-12-17T19:10:06.180Z,43.33
2022-12-17T19:12:35.879Z,42.63
2022-12-17T19:15:03.413Z,51.10
2022-12-17T19:17:33.344Z,44.33
2022-12-17T19:20:02.831Z,41.67
2022-12-17T19:22:32.571Z,41.10
2022-12-17T19:25:03.544Z,41.15
2022-12-17T19:27:33.161Z,45.78
2022-12-17T19:30:00.030Z,36.85
2022-12-17T19:32:29.179Z,43.00
2022-12-17T19:34:55.990Z,40.50
2022-12-17T19:37:25.991Z,47.03
2022-12-17T19:39:52.838Z,47.60
2022-12-17T19:42:25.634Z,38.08
2022-12-17T19:44:56.626Z,39.95
2022-12-17T19:47:24.538Z,33.55
2022-12-17T19:49:54.531Z,34.45
2022-12-17T19:52:24.109Z,39.40
2022-12-17T19:54:51.067Z,38.53
2022-12-17T19:57:18.064Z,35.83
2022-12-17T19:59:45.280Z,33.05
2022-12-17T20:02:17.514Z,34.08
2022-12-17T20:04:48.259Z,33.07
2022-12-17T20:07:15.973Z,48.08
2022-12-17T20:09:44.983Z,38.58
2022-12-17T20:12:12.856Z,41.40
2022-12-17T20:14:40.730Z,34.38
2022-12-17T20:17:07.799Z,38.15
2022-12-17T20:19:35.015Z,33.25
2022-12-17T20:22:06.602Z,36.10
2022-12-17T20:24:33.977Z,32.92
2022-12-17T20:27:03.948Z,31.50
2022-12-17T20:29:33.745Z,37.08
2022-12-17T20:32:02.770Z,35.42
2022-12-17T20:34:33.879Z,31.92
2022-12-17T20:37:01.016Z,41.78
2022-12-17T20:39:28.604Z,38.47
2022-12-17T20:41:57.088Z,38.42
2022-12-17T20:44:24.263Z,34.70
2022-12-17T20:46:51.149Z,35.78
2022-12-17T20:49:23.815Z,38.38
2022-12-17T20:51:50.787Z,36.75
2022-12-17T20:54:19.580Z,43.13
2022-12-17T20:56:49.056Z,32.22
2022-12-17T20:59:18.665Z,35.15
2022-12-17T21:01:50.372Z,29.20
2022-12-17T21:04:21.505Z,32.05
2022-12-17T21:06:48.920Z,31.45
2022-12-17T21:09:19.968Z,42.08
2022-12-17T21:11:47.006Z,34.67
2022-12-17T21:14:17.165Z,42.13
2022-12-17T21:16:47.620Z,34.08
2022-12-17T21:19:18.253Z,34.30
2022-12-17T21:21:45.571Z,40.38
2022-12-17T21:24:17.322Z,39.97
2022-12-17T21:26:47.979Z,34.60
2022-12-17T21:29:21.848Z,31.58
2022-12-17T21:31:52.651Z,36.85
2022-12-17T21:34:22.903Z,31.30
2022-12-17T21:36:51.022Z,34.40
2022-12-17T21:39:20.824Z,30.40
2022-12-17T21:42:08.086Z,36.30
2022-12-17T21:44:38.185Z,34.17
2022-12-17T21:47:07.576Z,43.95
2022-12-17T21:49:36.896Z,34.47
2022-12-17T21:52:07.468Z,27.25
2022-12-17T21:54:40.436Z,29.98
2022-12-17T21:57:07.835Z,27.70
2022-12-17T21:59:43.774Z,31.35
2022-12-17T22:02:11.306Z,29.40
2022-12-17T22:04:38.587Z,29.90
2022-12-17T22:07:13.657Z,34.35
2022-12-17T22:10:01.276Z,38.35
2022-12-17T22:12:54.996Z,28.73
2022-12-17T22:15:25.712Z,28.25
2022-12-17T22:17:57.467Z,30.80
2022-12-17T22:20:25.301Z,28.42
2022-12-17T22:22:54.474Z,30.15
2022-12-17T22:25:21.492Z,30.95
2022-12-17T22:27:48.615Z,28.80
2022-12-17T22:30:36.784Z,31.05
2022-12-17T22:33:13.298Z,29.63
2022-12-17T22:37:59.667Z,27.48
2022-12-17T22:42:06.214Z,35.47
2022-12-17T22:44:46.139Z,28.70
2022-12-17T22:44:51.305Z,29.17
2022-12-17T22:47:16.711Z,30.90
2022-12-17T22:49:44.257Z,30.90
2022-12-17T22:52:14.744Z,26.38
2022-12-17T22:54:47.454Z,32.50
2022-12-17T22:57:37.750Z,32.58
2022-12-17T23:00:29.291Z,26.55
2022-12-17T23:02:56.699Z,24.40
2022-12-17T23:05:28.238Z,36.15
2022-12-17T23:07:55.992Z,32.22
2022-12-17T23:10:28.467Z,38.20
2022-12-17T23:12:58.017Z,26.38
2022-12-17T23:15:33.097Z,31.33
2022-12-17T23:18:06.408Z,27.75
2022-12-17T23:20:34.872Z,47.03
2022-12-17T23:23:04.387Z,31.95
2022-12-17T23:25:33.814Z,32.80
2022-12-17T23:28:00.756Z,30.98
2022-12-17T23:30:27.911Z,33.17
2022-12-17T23:32:54.763Z,22.05
2022-12-17T23:35:23.782Z,24.35
2022-12-17T23:37:50.796Z,31.02
2022-12-17T23:40:17.805Z,27.88
2022-12-17T23:42:44.686Z,25.77
2022-12-17T23:45:12.075Z,26.42
2022-12-17T23:47:40.003Z,20.10
2022-12-17T23:50:09.811Z,21.42
2022-12-17T23:52:39.519Z,28.98
2022-12-17T23:55:07.504Z,24.85
2022-12-17T23:57:34.514Z,26.40
